createdAt,value
2022-10-31T00:01:37.667Z,5.35
2022-10-31T00:04:07.607Z,5.53
2022-10-31T00:06:35.540Z,5.35
2022-10-31T00:09:05.831Z,5.50
2022-10-31T00:11:34.490Z,5.10
2022-10-31T00:14:02.423Z,4.78
2022-10-31T00:16:31.656Z,5.25
2022-10-31T00:19:05.659Z,5.10
2022-10-31T00:21:34.864Z,5.20
2022-10-31T00:24:03.268Z,5.00
2022-10-31T00:26:32.964Z,4.97
2022-10-31T00:29:01.824Z,5.15
2022-10-31T00:31:30.338Z,5.25
2022-10-31T00:33:59.145Z,5.00
2022-10-31T00:36:28.556Z,4.73
2022-10-31T00:38:56.967Z,5.38
2022-10-31T00:41:25.422Z,4.60
2022-10-31T00:43:56.256Z,4.55
2022-10-31T00:46:24.937Z,4.40
2022-10-31T00:48:52.777Z,4.17
2022-10-31T00:51:20.893Z,4.30
2022-10-31T00:53:48.814Z,4.55
2022-10-31T00:56:17.014Z,4.30
2022-10-31T00:58:45.108Z,4.28
2022-10-31T01:01:13.907Z,4.10
2022-10-31T01:03:42.210Z,3.83
2022-10-31T01:06:15.261Z,3.92
2022-10-31T01:08:43.543Z,4.22
2022-10-31T01:11:21.027Z,3.53
2022-10-31T01:13:51.838Z,3.53
2022-10-31T01:16:22.877Z,3.63
2022-10-31T01:18:52.906Z,3.70
2022-10-31T01:21:27.128Z,3.17
2022-10-31T01:23:59.474Z,3.25
2022-10-31T01:26:32.140Z,3.70
2022-10-31T01:29:03.191Z,3.67
2022-10-31T01:31:34.759Z,3.20
2022-10-31T01:34:03.949Z,3.40
2022-10-31T01:36:38.378Z,3.20
2022-10-31T01:39:12.127Z,3.67
2022-10-31T01:41:44.230Z,3.50
2022-10-31T01:44:15.507Z,3.20
2022-10-31T01:46:55.077Z,3.25
2022-10-31T01:49:26.344Z,3.13
2022-10-31T01:52:18.027Z,3.03
2022-10-31T01:54:53.430Z,3.03
2022-10-31T01:57:23.733Z,3.13
2022-10-31T01:59:59.282Z,3.30
2022-10-31T02:02:31.553Z,3.47
2022-10-31T02:05:03.470Z,3.30
2022-10-31T02:07:45.107Z,3.05
2022-10-31T02:10:13.607Z,3.20
2022-10-31T02:12:43.056Z,3.17
2022-10-31T02:15:12.305Z,3.42
2022-10-31T02:17:44.679Z,3.30
2022-10-31T02:20:20.873Z,3.10
2022-10-31T02:23:08.313Z,3.10
2022-10-31T02:25:50.073Z,3.20
2022-10-31T02:28:56.748Z,2.65
2022-10-31T02:31:31.728Z,2.93
2022-10-31T02:34:08.064Z,3.10
2022-10-31T02:37:04.814Z,2.97
2022-10-31T02:39:42.555Z,2.60
2022-10-31T02:42:44.426Z,2.90
2022-10-31T02:45:19.831Z,2.87
2022-10-31T02:47:51.797Z,2.75
2022-10-31T02:50:22.451Z,2.92
2022-10-31T02:52:55.074Z,2.88
2022-10-31T02:55:31.577Z,2.58
2022-10-31T02:58:13.279Z,2.73
2022-10-31T03:01:36.506Z,2.67
2022-10-31T03:04:25.825Z,2.72
2022-10-31T03:07:23.349Z,2.80
2022-10-31T03:10:33.834Z,2.80
2022-10-31T03:13:12.407Z,2.57
2022-10-31T03:15:47.041Z,2.47
2022-10-31T03:18:22.817Z,2.50
2022-10-31T03:21:03.738Z,2.30
2022-10-31T03:23:33.786Z,2.40
2022-10-31T03:26:05.584Z,2.20
2022-10-31T03:28:51.355Z,2.60
2022-10-31T03:31:25.571Z,2.53
2022-10-31T03:33:54.882Z,2.30
2022-10-31T03:36:25.827Z,2.40
2022-10-31T03:38:56.264Z,2.60
2022-10-31T03:41:29.371Z,2.28
2022-10-31T03:44:06.792Z,2.25
2022-10-31T03:46:36.459Z,2.67
2022-10-31T03:49:06.297Z,2.55
2022-10-31T03:52:04.330Z,2.53
2022-10-31T03:54:44.502Z,2.50
2022-10-31T03:57:43.329Z,2.58
2022-10-31T04:00:14.553Z,2.30
2022-10-31T04:03:10.144Z,2.35
2022-10-31T04:05:40.605Z,2.20
2022-10-31T04:08:13.750Z,2.40
2022-10-31T04:10:47.786Z,2.38
2022-10-31T04:13:21.120Z,2.50
2022-10-31T04:15:58.964Z,2.53
2022-10-31T04:18:28.275Z,2.67
2022-10-31T04:21:05.133Z,2.50
2022-10-31T04:23:33.931Z,2.97
2022-10-31T04:26:08.031Z,3.00
2022-10-31T04:28:36.724Z,2.53
2022-10-31T04:31:05.045Z,2.80
2022-10-31T04:33:35.370Z,2.70
2022-10-31T04:36:06.065Z,2.60
2022-10-31T04:38:34.901Z,2.40
2022-10-31T04:41:07.589Z,2.40
2022-10-31T04:44:05.007Z,2.33
2022-10-31T04:46:33.960Z,2.38
2022-10-31T04:49:04.906Z,2.40
2022-10-31T04:51:33.857Z,2.30
2022-10-31T04:54:02.345Z,2.00
2022-10-31T04:57:03.242Z,1.93
2022-10-31T04:59:33.256Z,2.13
2022-10-31T05:02:02.204Z,2.55
2022-10-31T05:04:45.110Z,2.13
2022-10-31T05:07:14.164Z,2.53
2022-10-31T05:09:46.015Z,2.00
2022-10-31T05:12:15.857Z,2.40
2022-10-31T05:15:16.336Z,2.50
2022-10-31T05:17:45.347Z,2.30
2022-10-31T05:20:39.113Z,2.40
2022-10-31T05:23:36.767Z,2.20
2022-10-31T05:26:07.561Z,2.45
2022-10-31T05:28:36.377Z,2.22
2022-10-31T05:31:05.722Z,2.10
2022-10-31T05:33:34.204Z,2.30
2022-10-31T05:36:21.624Z,2.70
2022-10-31T05:38:55.831Z,2.40
2022-10-31T05:41:32.640Z,2.35
2022-10-31T05:44:08.259Z,2.40
2022-10-31T05:46:56.292Z,2.60
2022-10-31T05:49:43.139Z,2.40
2022-10-31T05:52:29.637Z,2.30
2022-10-31T05:55:07.439Z,2.40
2022-10-31T05:57:35.725Z,2.38
2022-10-31T06:00:04.986Z,2.47
2022-10-31T06:02:39.177Z,2.00
2022-10-31T06:05:36.415Z,2.38
2022-10-31T06:08:04.867Z,2.42
2022-10-31T06:10:33.445Z,2.60
2022-10-31T06:13:01.553Z,2.15
2022-10-31T06:15:39.954Z,2.53
2022-10-31T06:18:10.179Z,2.20
2022-10-31T06:20:49.464Z,1.95
2022-10-31T06:23:17.547Z,2.50
2022-10-31T06:25:51.886Z,2.03
2022-10-31T06:28:20.008Z,2.33
2022-10-31T06:30:54.815Z,2.20
2022-10-31T06:33:23.777Z,2.20
2022-10-31T06:35:58.902Z,2.20
2022-10-31T06:38:29.058Z,2.40
2022-10-31T06:40:58.738Z,2.57
2022-10-31T06:43:28.522Z,2.72
2022-10-31T06:46:28.116Z,2.40
2022-10-31T06:49:16.797Z,2.60
2022-10-31T06:51:55.448Z,2.83
2022-10-31T06:54:23.938Z,2.77
2022-10-31T06:56:52.406Z,2.90
2022-10-31T06:59:20.951Z,2.60
2022-10-31T07:02:16.392Z,2.70
2022-10-31T07:04:45.481Z,2.90
2022-10-31T07:07:18.626Z,2.80
2022-10-31T07:09:48.037Z,2.97
2022-10-31T07:12:18.779Z,2.95
2022-10-31T07:14:56.151Z,3.10
2022-10-31T07:17:29.871Z,2.90
2022-10-31T07:20:01.407Z,2.93
2022-10-31T07:22:38.087Z,3.20
2022-10-31T07:25:11.942Z,3.50
2022-10-31T07:27:58.555Z,3.55
2022-10-31T07:30:26.976Z,3.70
2022-10-31T07:32:57.951Z,3.37
2022-10-31T07:35:39.716Z,4.60
2022-10-31T07:38:12.025Z,3.88
2022-10-31T07:40:41.008Z,4.28
2022-10-31T07:43:13.955Z,4.53
2022-10-31T07:46:02.586Z,3.93
2022-10-31T07:48:49.140Z,4.13
2022-10-31T07:51:52.487Z,4.05
2022-10-31T07:54:39.313Z,3.70
2022-10-31T07:57:10.573Z,3.75
2022-10-31T07:59:39.886Z,3.70
2022-10-31T08:02:10.154Z,3.90
2022-10-31T08:04:50.716Z,5.00
2022-10-31T08:07:48.202Z,5.18
2022-10-31T08:10:22.291Z,6.03
2022-10-31T08:13:01.597Z,5.80
2022-10-31T08:15:31.159Z,5.63
2022-10-31T08:18:00.562Z,5.68
2022-10-31T08:20:29.417Z,4.43
2022-10-31T08:23:01.346Z,4.00
2022-10-31T08:25:35.347Z,3.57
2022-10-31T08:28:08.009Z,3.65
2022-10-31T08:30:38.325Z,3.30
2022-10-31T08:33:24.620Z,3.30
2022-10-31T08:36:11.469Z,3.28
2022-10-31T08:38:53.223Z,3.23
2022-10-31T08:41:23.791Z,3.10
2022-10-31T08:43:51.901Z,3.13
2022-10-31T08:46:20.369Z,3.30
2022-10-31T08:48:50.347Z,3.55
2022-10-31T08:51:20.604Z,3.50
2022-10-31T08:53:52.411Z,3.28
2022-10-31T08:56:26.488Z,3.22
2022-10-31T08:58:55.168Z,3.08
2022-10-31T09:01:33.523Z,3.03
2022-10-31T09:04:02.075Z,4.87
2022-10-31T09:06:30.214Z,4.60
2022-10-31T09:08:58.435Z,4.38
2022-10-31T09:11:27.532Z,3.78
2022-10-31T09:14:14.104Z,3.75
2022-10-31T09:17:00.633Z,3.70
2022-10-31T09:19:45.165Z,3.75
2022-10-31T09:22:13.386Z,3.70
2022-10-31T09:24:41.380Z,3.83
2022-10-31T09:27:10.445Z,3.22
2022-10-31T09:29:42.240Z,3.20
2022-10-31T09:32:12.995Z,3.30
2022-10-31T09:34:46.627Z,3.10
2022-10-31T09:37:20.639Z,3.40
2022-10-31T09:39:48.946Z,3.30
2022-10-31T09:42:25.646Z,3.30
2022-10-31T09:45:03.041Z,3.60
2022-10-31T09:48:03.255Z,3.67
2022-10-31T09:51:05.328Z,3.22
2022-10-31T09:54:06.877Z,3.03
2022-10-31T09:56:36.942Z,2.95
2022-10-31T09:59:12.736Z,3.37
2022-10-31T10:01:52.508Z,3.42
2022-10-31T10:04:39.272Z,3.92
2022-10-31T10:07:43.704Z,3.63
2022-10-31T10:10:59.320Z,4.53
2022-10-31T10:13:47.491Z,3.00
2022-10-31T10:16:41.637Z,2.85
2022-10-31T10:19:46.603Z,3.05
2022-10-31T10:22:24.941Z,2.63
2022-10-31T10:25:24.692Z,3.53
2022-10-31T10:28:23.633Z,2.70
2022-10-31T10:31:05.633Z,2.78
2022-10-31T10:34:09.584Z,2.70
2022-10-31T10:36:52.283Z,2.90
2022-10-31T10:39:29.325Z,2.90
2022-10-31T10:42:17.865Z,2.83
2022-10-31T10:45:07.286Z,2.75
2022-10-31T10:48:02.141Z,3.00
2022-10-31T10:50:37.716Z,3.17
2022-10-31T10:53:08.144Z,2.60
2022-10-31T10:56:06.505Z,3.07
2022-10-31T10:58:34.545Z,3.22
2022-10-31T11:01:02.498Z,2.88
2022-10-31T11:03:30.958Z,2.63
2022-10-31T11:06:00.231Z,2.90
2022-10-31T11:08:31.451Z,2.87
2022-10-31T11:11:06.721Z,3.00
2022-10-31T11:13:36.469Z,2.72
2022-10-31T11:16:35.527Z,2.72
2022-10-31T11:19:20.485Z,2.55
2022-10-31T11:21:52.900Z,2.50
2022-10-31T11:24:24.945Z,2.45
2022-10-31T11:26:53.555Z,2.40
2022-10-31T11:29:26.817Z,2.42
2022-10-31T11:32:01.382Z,2.90
2022-10-31T11:34:32.321Z,2.70
2022-10-31T11:37:26.362Z,2.83
2022-10-31T11:39:57.649Z,3.10
2022-10-31T11:42:31.654Z,3.33
2022-10-31T11:45:00.354Z,3.10
2022-10-31T11:47:33.761Z,3.20
2022-10-31T11:50:11.176Z,3.28
2022-10-31T11:52:41.846Z,3.08
2022-10-31T11:55:20.322Z,3.00
2022-10-31T11:57:51.705Z,2.97
2022-10-31T12:00:24.400Z,3.10
2022-10-31T12:03:05.947Z,3.30
2022-10-31T12:05:35.265Z,3.00
2022-10-31T12:08:04.757Z,3.30
2022-10-31T12:10:56.672Z,3.10
2022-10-31T12:13:50.127Z,3.27
2022-10-31T12:16:33.295Z,3.00
2022-10-31T12:19:19.884Z,3.20
2022-10-31T12:22:05.937Z,3.30
2022-10-31T12:24:39.906Z,3.40
2022-10-31T12:27:47.825Z,3.07
2022-10-31T12:30:45.041Z,3.22
2022-10-31T12:33:31.325Z,3.33
2022-10-31T12:36:36.136Z,2.83
2022-10-31T12:39:30.843Z,3.35
2022-10-31T12:42:25.514Z,3.00
2022-10-31T12:45:12.353Z,3.15
2022-10-31T12:47:40.595Z,3.55
2022-10-31T12:50:48.930Z,3.55
2022-10-31T12:53:25.051Z,3.20
2022-10-31T12:56:23.424Z,3.40
2022-10-31T12:59:01.106Z,3.45
2022-10-31T13:01:36.467Z,3.47
2022-10-31T13:04:17.603Z,3.22
2022-10-31T13:06:56.288Z,3.15
2022-10-31T13:09:56.711Z,3.40
2022-10-31T13:12:25.951Z,3.40
2022-10-31T13:15:05.525Z,3.30
2022-10-31T13:17:41.720Z,3.30
2022-10-31T13:20:18.711Z,3.38
2022-10-31T13:22:50.931Z,3.27
2022-10-31T13:25:26.328Z,3.33
2022-10-31T13:28:02.417Z,3.13
2022-10-31T13:30:42.573Z,3.10
2022-10-31T13:33:23.646Z,3.30
2022-10-31T13:36:14.960Z,3.37
2022-10-31T13:39:14.691Z,3.13
2022-10-31T13:41:49.660Z,4.22
2022-10-31T13:44:27.932Z,3.40
2022-10-31T13:46:58.653Z,3.50
2022-10-31T13:49:32.511Z,3.50
2022-10-31T13:52:10.893Z,3.45
2022-10-31T13:54:45.631Z,3.63
2022-10-31T13:57:53.331Z,3.47
2022-10-31T14:00:21.440Z,4.07
2022-10-31T14:02:59.014Z,3.87
2022-10-31T14:05:31.252Z,3.70
2022-10-31T14:08:02.069Z,3.65
2022-10-31T14:10:52.533Z,3.70
2022-10-31T14:13:45.075Z,3.60
2022-10-31T14:16:35.043Z,3.60
2022-10-31T14:19:21.130Z,3.80
2022-10-31T14:21:50.665Z,3.80
2022-10-31T14:24:27.321Z,3.60
2022-10-31T14:27:01.522Z,3.78
2022-10-31T14:29:35.541Z,3.47
2022-10-31T14:32:14.305Z,3.40
2022-10-31T14:35:02.504Z,3.40
2022-10-31T14:37:59.620Z,3.38
2022-10-31T14:40:44.164Z,3.63
2022-10-31T14:44:01.090Z,3.70
2022-10-31T14:46:38.017Z,3.70
2022-10-31T14:49:21.553Z,3.90
2022-10-31T14:51:52.060Z,3.40
2022-10-31T14:54:45.624Z,3.60
2022-10-31T14:57:32.480Z,3.60
2022-10-31T15:00:07.887Z,3.35
2022-10-31T15:02:49.765Z,3.25
2022-10-31T15:05:19.609Z,3.53
2022-10-31T15:07:59.078Z,3.65
2022-10-31T15:10:33.909Z,3.70
2022-10-31T15:13:25.581Z,3.65
2022-10-31T15:15:57.169Z,3.90
2022-10-31T15:18:31.223Z,3.50
2022-10-31T15:21:00.765Z,3.67
2022-10-31T15:23:31.369Z,3.70
2022-10-31T15:26:05.567Z,3.50
2022-10-31T15:28:34.015Z,3.78
2022-10-31T15:31:03.697Z,3.63
2022-10-31T15:33:45.241Z,3.65
2022-10-31T15:36:27.289Z,3.63
2022-10-31T15:39:01.285Z,3.55
2022-10-31T15:41:54.204Z,3.80
2022-10-31T15:44:35.306Z,3.92
2022-10-31T15:47:06.621Z,3.70
2022-10-31T15:49:37.539Z,4.10
2022-10-31T15:52:15.373Z,3.83
2022-10-31T15:54:53.542Z,3.83
2022-10-31T15:57:21.927Z,3.80
2022-10-31T15:59:51.346Z,3.70
2022-10-31T16:02:28.863Z,3.60
2022-10-31T16:05:00.553Z,3.88
2022-10-31T16:07:30.885Z,4.15
2022-10-31T16:10:04.681Z,4.47
2022-10-31T16:12:54.098Z,4.00
2022-10-31T16:15:23.231Z,4.07
2022-10-31T16:17:56.730Z,4.13
2022-10-31T16:20:30.485Z,3.78
2022-10-31T16:23:00.637Z,3.95
2022-10-31T16:25:38.459Z,4.00
2022-10-31T16:28:16.553Z,4.00
2022-10-31T16:30:48.689Z,3.95
2022-10-31T16:33:29.153Z,4.28
2022-10-31T16:36:09.566Z,4.40
2022-10-31T16:38:45.539Z,4.53
2022-10-31T16:41:13.718Z,4.30
2022-10-31T16:43:41.902Z,4.60
2022-10-31T16:48:49.106Z,4.40
2022-10-31T16:51:17.607Z,4.70
2022-10-31T16:53:46.841Z,4.83
2022-10-31T16:56:33.728Z,4.78
2022-10-31T16:59:05.175Z,4.28
2022-10-31T17:01:34.318Z,4.53
2022-10-31T17:04:02.798Z,4.90
2022-10-31T17:06:30.987Z,5.00
2022-10-31T17:08:59.062Z,4.70
2022-10-31T17:11:28.206Z,5.22
2022-10-31T17:13:58.047Z,6.10
2022-10-31T17:16:26.657Z,7.10
2022-10-31T17:18:54.688Z,8.00
2022-10-31T17:21:25.361Z,8.48
2022-10-31T17:23:54.474Z,8.50
2022-10-31T17:26:22.595Z,7.50
2022-10-31T17:28:50.837Z,7.72
2022-10-31T17:31:23.713Z,8.97
2022-10-31T17:34:00.106Z,7.72
2022-10-31T17:36:32.128Z,5.90
2022-10-31T17:39:00.598Z,5.25
2022-10-31T17:41:29.049Z,8.20
2022-10-31T17:43:58.189Z,5.77
2022-10-31T17:46:30.413Z,5.32
2022-10-31T17:49:01.540Z,5.90
2022-10-31T17:51:30.320Z,6.57
2022-10-31T17:53:59.838Z,6.78
2022-10-31T17:56:28.369Z,6.90
2022-10-31T17:58:58.870Z,6.75
2022-10-31T18:01:28.165Z,6.70
2022-10-31T18:03:56.317Z,8.75
2022-10-31T18:06:25.234Z,6.60
2022-10-31T18:08:53.703Z,5.80
2022-10-31T18:11:22.747Z,5.63
2022-10-31T18:14:00.448Z,5.07
2022-10-31T18:16:28.978Z,5.70
2022-10-31T18:19:02.569Z,5.18
2022-10-31T18:21:31.448Z,5.47
2022-10-31T18:24:01.312Z,5.32
2022-10-31T18:26:29.956Z,4.70
2022-10-31T18:28:58.553Z,4.55
2022-10-31T18:31:26.757Z,5.15
2022-10-31T18:33:56.561Z,4.80
2022-10-31T18:36:25.690Z,4.95
2022-10-31T18:38:54.419Z,5.05
2022-10-31T18:41:22.992Z,5.32
2022-10-31T18:43:51.727Z,5.53
2022-10-31T18:46:20.529Z,5.27
2022-10-31T18:48:48.773Z,5.05
2022-10-31T18:51:18.896Z,5.55
2022-10-31T18:53:55.373Z,5.22
2022-10-31T18:56:24.108Z,5.40
2022-10-31T18:58:52.394Z,5.90
2022-10-31T19:01:21.972Z,5.75
2022-10-31T19:03:54.930Z,5.72
2022-10-31T19:06:28.139Z,5.75
2022-10-31T19:09:02.207Z,5.80
2022-10-31T19:11:34.315Z,5.87
2022-10-31T19:14:03.323Z,5.60
2022-10-31T19:16:32.266Z,5.47
2022-10-31T19:19:00.702Z,5.45
2022-10-31T19:21:29.413Z,5.90
2022-10-31T19:23:58.616Z,5.50
2022-10-31T19:26:27.891Z,5.30
2022-10-31T19:28:57.347Z,5.53
2022-10-31T19:31:25.766Z,5.40
2022-10-31T19:33:54.404Z,5.30
2022-10-31T19:36:24.217Z,5.63
2022-10-31T19:38:54.221Z,5.30
2022-10-31T19:41:40.513Z,5.30
2022-10-31T19:44:13.266Z,4.70
2022-10-31T19:46:53.445Z,5.10
2022-10-31T19:49:22.729Z,4.87
2022-10-31T19:51:51.313Z,5.15
2022-10-31T19:54:19.388Z,4.78
2022-10-31T19:56:47.441Z,4.93
2022-10-31T19:59:15.805Z,5.60
2022-10-31T20:01:48.330Z,4.73
2022-10-31T20:04:16.597Z,5.38
2022-10-31T20:06:44.932Z,5.18
2022-10-31T20:09:14.469Z,6.18
2022-10-31T20:11:45.085Z,6.45
2022-10-31T20:14:17.163Z,6.33
2022-10-31T20:16:46.599Z,6.53
2022-10-31T20:19:14.975Z,7.63
2022-10-31T20:21:43.406Z,5.60
2022-10-31T20:24:12.115Z,5.25
2022-10-31T20:26:41.417Z,4.60
2022-10-31T20:29:16.349Z,4.70
2022-10-31T20:31:46.578Z,4.47
2022-10-31T20:34:15.803Z,6.35
2022-10-31T20:36:46.217Z,4.45
2022-10-31T20:39:14.801Z,4.53
2022-10-31T20:41:42.880Z,5.00
2022-10-31T20:44:11.129Z,5.05
2022-10-31T20:46:39.297Z,5.15
2022-10-31T20:49:07.742Z,5.30
2022-10-31T20:51:35.737Z,5.40
2022-10-31T20:54:04.220Z,5.38
2022-10-31T20:56:32.182Z,5.50
2022-10-31T20:59:00.539Z,5.75
2022-10-31T21:01:36.817Z,5.90
2022-10-31T21:04:06.741Z,5.43
2022-10-31T21:06:35.831Z,5.47
2022-10-31T21:09:04.428Z,5.45
2022-10-31T21:11:32.568Z,5.82
2022-10-31T21:14:00.801Z,5.25
2022-10-31T21:16:31.703Z,5.27
2022-10-31T21:19:01.503Z,5.53
2022-10-31T21:21:33.353Z,5.32
2022-10-31T21:24:07.880Z,4.93
2022-10-31T21:26:39.450Z,5.15
2022-10-31T21:29:08.767Z,5.03
2022-10-31T21:31:38.100Z,5.40
2022-10-31T21:34:06.905Z,5.13
2022-10-31T21:36:36.716Z,5.47
2022-10-31T21:39:07.676Z,5.10
2022-10-31T21:41:36.666Z,5.10
2022-10-31T21:44:05.524Z,4.90
2022-10-31T21:46:34.904Z,5.35
2022-10-31T21:49:04.309Z,4.88
2022-10-31T21:51:35.917Z,4.95
2022-10-31T21:54:22.720Z,4.47
2022-10-31T21:56:52.237Z,4.18
2022-10-31T21:59:20.710Z,4.85
2022-10-31T22:01:49.305Z,4.22
2022-10-31T22:04:17.812Z,4.88
2022-10-31T22:06:46.403Z,4.50
2022-10-31T22:09:15.535Z,4.65
2022-10-31T22:11:44.290Z,4.47
2022-10-31T22:14:14.243Z,5.18
2022-10-31T22:16:42.932Z,4.15
2022-10-31T22:19:13.320Z,4.63
2022-10-31T22:21:49.475Z,4.50
2022-10-31T22:24:18.838Z,4.70
2022-10-31T22:26:46.827Z,5.13
2022-10-31T22:29:17.719Z,4.50
2022-10-31T22:31:51.869Z,4.90
2022-10-31T22:34:24.245Z,4.70
2022-10-31T22:36:56.435Z,4.65
2022-10-31T22:39:24.931Z,4.70
2022-10-31T22:41:52.960Z,4.57
2022-10-31T22:44:21.083Z,4.70
2022-10-31T22:46:49.341Z,4.57
2022-10-31T22:49:20.939Z,5.22
2022-10-31T22:51:52.552Z,5.57
2022-10-31T22:54:20.798Z,5.40
2022-10-31T22:56:48.646Z,4.90
2022-10-31T22:59:17.662Z,4.85
2022-10-31T23:01:46.486Z,5.13
2022-10-31T23:04:16.683Z,5.43
2022-10-31T23:06:45.230Z,4.40
2022-10-31T23:09:16.103Z,4.40
2022-10-31T23:11:45.375Z,4.40
2022-10-31T23:14:21.175Z,3.50
2022-10-31T23:16:53.310Z,3.45
2022-10-31T23:19:22.574Z,3.70
2022-10-31T23:22:03.408Z,3.27
2022-10-31T23:24:46.546Z,3.20
2022-10-31T23:27:18.993Z,3.78
2022-10-31T23:29:52.269Z,3.58
2022-10-31T23:32:29.894Z,4.05
2022-10-31T23:37:45.112Z,4.22
2022-10-31T23:40:13.375Z,6.97
2022-10-31T23:42:41.285Z,5.03
2022-10-31T23:45:09.619Z,4.53
2022-10-31T23:47:43.254Z,4.60
2022-10-31T23:50:12.000Z,4.45
2022-10-31T23:52:39.788Z,4.63
2022-10-31T23:55:08.558Z,4.28
2022-10-31T23:57:36.632Z,5.97
